Time;durP1;ratioP1;P1;durP2;ratioP2;P2;SDS_P1;SDS_P2;PMS_P1;PMS_P2;Temp;Humidity;BMP_temperature;BMP_pressure;BME280_temperature;BME280_humidity;BME280_pressure;Samples;Min_cycle;Max_cycle;Signal;HPM_P1;HPM_P2
2023/05/08 00:01:50;;;;;;;4.32;1.38;;;;;;;;;;5053029;28;20041;-68
2023/05/08 00:04:19;;;;;;;4.43;1.38;;;;;;;;;;5053262;28;20017;-68
2023/05/08 00:06:45;;;;;;;4.15;1.42;;;;;;;;;;5053117;28;20029;-69
2023/05/08 00:09:12;;;;;;;5.03;1.30;;;;;;;;;;5053398;28;20028;-69
2023/05/08 00:11:38;;;;;;;4.10;1.67;;;;;;;;;;5052952;28;20039;-69
2023/05/08 00:14:05;;;;;;;1.65;0.98;;;;;;;;;;5052797;28;20027;-68
2023/05/08 00:16:31;;;;;;;3.17;1.27;;;;;;;;;;5052917;28;20025;-69
2023/05/08 00:18:58;;;;;;;2.92;1.48;;;;;;;;;;5052931;28;20055;-69
2023/05/08 00:21:24;;;;;;;4.88;1.38;;;;;;;;;;5052417;28;20032;-68
2023/05/08 00:23:51;;;;;;;6.10;1.30;;;;;;;;;;5052206;28;20025;-69
2023/05/08 00:26:17;;;;;;;2.17;1.27;;;;;;;;;;5052883;28;20027;-68
2023/05/08 00:28:44;;;;;;;6.63;1.35;;;;;;;;;;5051803;28;20394;-68
2023/05/08 00:31:10;;;;;;;1.63;1.17;;;;;;;;;;5052615;28;20057;-69
2023/05/08 00:33:37;;;;;;;3.92;1.20;;;;;;;;;;5052611;28;20029;-69
2023/05/08 00:36:04;;;;;;;5.15;1.40;;;;;;;;;;5052716;28;20025;-68
2023/05/08 00:38:31;;;;;;;2.80;1.42;;;;;;;;;;5052627;28;20070;-69
2023/05/08 00:40:57;;;;;;;3.22;1.40;;;;;;;;;;5052350;28;20037;-69
2023/05/08 00:43:26;;;;;;;5.30;1.33;;;;;;;;;;5052833;28;20017;-69
2023/05/08 00:45:54;;;;;;;3.15;1.20;;;;;;;;;;5052622;28;20366;-68
2023/05/08 00:48:22;;;;;;;2.42;1.13;;;;;;;;;;5052397;28;20029;-69
2023/05/08 00:50:49;;;;;;;2.63;1.27;;;;;;;;;;5052371;28;20017;-69
2023/05/08 00:53:15;;;;;;;4.20;1.45;;;;;;;;;;5052503;28;20055;-69
2023/05/08 00:55:42;;;;;;;3.10;1.30;;;;;;;;;;5052623;28;20500;-68
2023/05/08 00:58:08;;;;;;;3.83;1.20;;;;;;;;;;5052715;28;20036;-69
2023/05/08 01:00:35;;;;;;;2.28;1.25;;;;;;;;;;5052171;28;20033;-69
2023/05/08 01:03:02;;;;;;;8.40;1.63;;;;;;;;;;5052235;28;20025;-69
2023/05/08 01:05:28;;;;;;;8.85;1.77;;;;;;;;;;5052328;28;20029;-69
2023/05/08 01:07:55;;;;;;;5.95;1.50;;;;;;;;;;5051214;28;20393;-69
2023/05/08 01:10:21;;;;;;;5.80;1.33;;;;;;;;;;5052338;28;20474;-69
2023/05/08 01:13:00;;;;;;;3.90;1.45;;;;;;;;;;5052316;28;20478;-69
2023/05/08 01:15:34;;;;;;;5.47;1.92;;;;;;;;;;5052194;28;20413;-69
2023/05/08 01:18:10;;;;;;;3.65;1.42;;;;;;;;;;5052762;28;20021;-69
2023/05/08 01:20:48;;;;;;;4.07;1.35;;;;;;;;;;5051820;28;20025;-69
2023/05/08 01:23:33;;;;;;;9.60;1.45;;;;;;;;;;5052651;28;20029;-69
2023/05/08 01:26:02;;;;;;;4.13;1.65;;;;;;;;;;5052144;28;20021;-69
2023/05/08 01:28:48;;;;;;;2.85;1.30;;;;;;;;;;5052065;28;20023;-69
2023/05/08 01:31:32;;;;;;;4.68;1.30;;;;;;;;;;5051933;28;20045;-69
2023/05/08 01:34:02;;;;;;;4.70;1.25;;;;;;;;;;5052123;28;20031;-69
2023/05/08 01:36:33;;;;;;;2.35;1.25;;;;;;;;;;5056214;28;20031;-69
2023/05/08 01:39:12;;;;;;;5.88;1.52;;;;;;;;;;5056198;28;20013;-68
2023/05/08 01:41:39;;;;;;;6.15;1.70;;;;;;;;;;5055873;28;20082;-68
2023/05/08 01:44:15;;;;;;;5.72;1.70;;;;;;;;;;5055716;28;20023;-69
2023/05/08 01:46:41;;;;;;;6.13;1.75;;;;;;;;;;5055686;28;20021;-68
2023/05/08 01:49:09;;;;;;;6.20;1.30;;;;;;;;;;5055389;28;20033;-69
2023/05/08 01:51:43;;;;;;;4.78;1.50;;;;;;;;;;5055865;28;20039;-69
2023/05/08 01:54:11;;;;;;;8.65;1.42;;;;;;;;;;5055872;28;20035;-68
2023/05/08 01:56:39;;;;;;;9.02;1.42;;;;;;;;;;5056005;28;20039;-69
2023/05/08 01:59:06;;;;;;;9.73;1.63;;;;;;;;;;5055842;28;20051;-69
2023/05/08 02:01:33;;;;;;;10.13;1.95;;;;;;;;;;5055221;28;20044;-69
2023/05/08 02:04:00;;;;;;;11.55;2.00;;;;;;;;;;5055250;28;20500;-68
2023/05/08 02:06:27;;;;;;;5.15;1.80;;;;;;;;;;5055624;28;20021;-69
2023/05/08 02:08:54;;;;;;;6.35;1.83;;;;;;;;;;5055314;28;20027;-69
2023/05/08 02:11:23;;;;;;;6.25;1.65;;;;;;;;;;5055251;28;20024;-69
2023/05/08 02:13:50;;;;;;;5.95;2.00;;;;;;;;;;5055327;28;20031;-69
2023/05/08 02:16:18;;;;;;;5.50;1.92;;;;;;;;;;5055324;28;20035;-69
2023/05/08 02:18:48;;;;;;;7.43;1.60;;;;;;;;;;5055007;28;20027;-69
2023/05/08 02:21:15;;;;;;;4.22;1.83;;;;;;;;;;5055094;28;20032;-69
2023/05/08 02:23:42;;;;;;;6.03;1.55;;;;;;;;;;5055357;28;20017;-69
2023/05/08 02:26:09;;;;;;;4.90;1.50;;;;;;;;;;5054934;28;20055;-69
2023/05/08 02:28:35;;;;;;;3.22;1.25;;;;;;;;;;5054937;28;20028;-69
2023/05/08 02:31:02;;;;;;;2.88;1.33;;;;;;;;;;5054873;28;20048;-69
2023/05/08 02:33:29;;;;;;;5.25;1.40;;;;;;;;;;5054912;28;20017;-69
2023/05/08 02:35:56;;;;;;;3.80;1.60;;;;;;;;;;5055061;28;20029;-69
2023/05/08 02:38:23;;;;;;;1.67;1.02;;;;;;;;;;5053884;28;20017;-69
2023/05/08 02:40:52;;;;;;;2.83;1.40;;;;;;;;;;5054659;28;20029;-69
2023/05/08 02:43:18;;;;;;;3.85;1.52;;;;;;;;;;5054642;28;20025;-68
2023/05/08 02:46:01;;;;;;;5.78;1.67;;;;;;;;;;5054175;28;20506;-68
2023/05/08 02:48:35;;;;;;;3.35;1.20;;;;;;;;;;5054319;28;20032;-69
2023/05/08 02:51:22;;;;;;;3.88;1.52;;;;;;;;;;5054567;28;20037;-69
2023/05/08 02:54:12;;;;;;;5.97;1.60;;;;;;;;;;5054345;28;20047;-69
2023/05/08 02:56:49;;;;;;;6.18;1.65;;;;;;;;;;5032350;28;20038;-69
2023/05/08 02:59:20;;;;;;;3.90;1.52;;;;;;;;;;5032340;28;20135;-69
2023/05/08 03:01:46;;;;;;;;;;;;;;;;;;5026534;28;20041;-69
2023/05/08 03:04:19;;;;;;;6.50;1.77;;;;;;;;;;5032906;28;19913;-69
2023/05/08 03:06:47;;;;;;;7.00;1.70;;;;;;;;;;5032218;28;20025;-69
2023/05/08 03:09:18;;;;;;;3.35;1.67;;;;;;;;;;5032423;28;20038;-69
2023/05/08 03:11:47;;;;;;;6.45;1.73;;;;;;;;;;5032005;28;20030;-69
2023/05/08 03:14:15;;;;;;;5.68;1.75;;;;;;;;;;5032058;28;20042;-69
2023/05/08 03:16:42;;;;;;;5.30;1.50;;;;;;;;;;5031655;28;20038;-68
2023/05/08 03:19:20;;;;;;;6.50;1.42;;;;;;;;;;5032405;28;20056;-69
2023/05/08 03:21:48;;;;;;;6.78;1.42;;;;;;;;;;5031842;28;20045;-69
2023/05/08 03:24:17;;;;;;;4.45;1.60;;;;;;;;;;5032105;28;20045;-69
2023/05/08 03:26:44;;;;;;;5.40;1.40;;;;;;;;;;5031889;28;20538;-69
2023/05/08 03:29:12;;;;;;;3.88;1.20;;;;;;;;;;5031876;28;20029;-69
2023/05/08 03:31:39;;;;;;;5.20;1.50;;;;;;;;;;5031344;28;20041;-69
2023/05/08 03:34:06;;;;;;;4.20;1.38;;;;;;;;;;5033024;28;20037;-69
2023/05/08 03:36:32;;;;;;;5.95;1.40;;;;;;;;;;5033663;28;20508;-69
2023/05/08 03:38:59;;;;;;;3.75;1.25;;;;;;;;;;5034058;28;20047;-69
2023/05/08 03:41:26;;;;;;;4.72;1.85;;;;;;;;;;5033507;28;20033;-69
2023/05/08 03:43:53;;;;;;;3.42;1.33;;;;;;;;;;5033975;28;20025;-69
2023/05/08 03:46:20;;;;;;;4.75;1.60;;;;;;;;;;5033279;28;20026;-69
2023/05/08 03:48:47;;;;;;;6.15;1.75;;;;;;;;;;5033736;28;20017;-69
2023/05/08 03:51:16;;;;;;;5.18;1.63;;;;;;;;;;5033329;28;20486;-69
2023/05/08 03:53:42;;;;;;;5.88;1.60;;;;;;;;;;5033533;28;20047;-68
2023/05/08 03:56:08;;;;;;;6.90;2.00;;;;;;;;;;5033362;28;20021;-69
2023/05/08 03:58:40;;;;;;;4.90;1.70;;;;;;;;;;5033236;28;20024;-69
2023/05/08 04:01:10;;;;;;;5.18;1.73;;;;;;;;;;5041562;28;20029;-69
2023/05/08 04:03:48;;;;;;;7.78;2.00;;;;;;;;;;5053100;28;20031;-69
2023/05/08 04:06:17;;;;;;;5.57;1.50;;;;;;;;;;5053027;28;20497;-68
2023/05/08 04:09:02;;;;;;;3.97;1.50;;;;;;;;;;5053384;28;20029;-68
2023/05/08 04:11:35;;;;;;;4.15;1.70;;;;;;;;;;5053045;28;20029;-69
2023/05/08 04:14:05;;;;;;;4.38;1.60;;;;;;;;;;5052845;28;20017;-69
2023/05/08 04:16:34;;;;;;;5.03;1.30;;;;;;;;;;5053270;28;20031;-69
2023/05/08 04:19:02;;;;;;;4.95;1.42;;;;;;;;;;5053057;28;20023;-69
2023/05/08 04:21:30;;;;;;;5.47;1.52;;;;;;;;;;5052884;28;20403;-69
2023/05/08 04:23:58;;;;;;;4.13;1.65;;;;;;;;;;5053010;28;20020;-69
2023/05/08 04:26:24;;;;;;;6.03;2.03;;;;;;;;;;5051574;28;20059;-69
2023/05/08 04:28:51;;;;;;;5.20;1.58;;;;;;;;;;5052389;28;20021;-68
2023/05/08 04:31:18;;;;;;;5.07;1.90;;;;;;;;;;5052590;28;20067;-68
2023/05/08 04:33:45;;;;;;;7.28;1.55;;;;;;;;;;5053060;28;20032;-69
2023/05/08 04:36:12;;;;;;;7.38;1.50;;;;;;;;;;5051694;28;20025;-68
2023/05/08 04:38:39;;;;;;;4.38;1.77;;;;;;;;;;5052613;28;20028;-69
2023/05/08 04:41:05;;;;;;;4.18;1.58;;;;;;;;;;5052441;28;20516;-69
2023/05/08 04:43:32;;;;;;;5.32;1.40;;;;;;;;;;5052393;28;20070;-69
2023/05/08 04:45:58;;;;;;;8.38;2.15;;;;;;;;;;5052632;28;20033;-69
2023/05/08 04:48:24;;;;;;;3.65;1.63;;;;;;;;;;5052433;28;20023;-68
2023/05/08 04:50:51;;;;;;;7.53;1.60;;;;;;;;;;5052637;28;20482;-68
2023/05/08 04:53:17;;;;;;;5.13;1.98;;;;;;;;;;5052367;28;20029;-69
2023/05/08 04:55:43;;;;;;;6.60;1.88;;;;;;;;;;5052431;28;20033;-69
2023/05/08 04:58:10;;;;;;;5.30;1.70;;;;;;;;;;5052403;28;20032;-68
2023/05/08 05:00:36;;;;;;;4.75;1.60;;;;;;;;;;5052316;28;20017;-69
2023/05/08 05:03:03;;;;;;;6.78;1.58;;;;;;;;;;5052480;28;20432;-69
2023/05/08 05:05:30;;;;;;;5.22;1.77;;;;;;;;;;5052130;28;20071;-69
2023/05/08 05:07:56;;;;;;;5.53;1.88;;;;;;;;;;5052271;28;20033;-69
2023/05/08 05:10:22;;;;;;;8.32;2.10;;;;;;;;;;5054863;28;20031;-69
2023/05/08 05:12:49;;;;;;;6.20;2.13;;;;;;;;;;5056137;28;20025;-69
2023/05/08 05:15:15;;;;;;;5.78;1.33;;;;;;;;;;5056431;28;20032;-69
2023/05/08 05:17:41;;;;;;;3.55;1.58;;;;;;;;;;5056468;28;20025;-69
2023/05/08 05:20:08;;;;;;;3.53;1.58;;;;;;;;;;5056315;28;20506;-69
2023/05/08 05:22:34;;;;;;;5.30;1.70;;;;;;;;;;5056153;28;20094;-68
2023/05/08 05:25:00;;;;;;;5.53;1.52;;;;;;;;;;5056055;28;20078;-69
2023/05/08 05:27:27;;;;;;;3.65;1.50;;;;;;;;;;5055764;28;20025;-68
2023/05/08 05:29:53;;;;;;;5.05;1.50;;;;;;;;;;5056182;28;20045;-69
2023/05/08 05:32:19;;;;;;;3.80;1.70;;;;;;;;;;5055852;28;20025;-69
2023/05/08 05:34:46;;;;;;;5.10;1.30;;;;;;;;;;5054790;28;20033;-70
2023/05/08 05:37:12;;;;;;;5.78;1.40;;;;;;;;;;5056065;28;20025;-69
2023/05/08 05:39:38;;;;;;;4.35;1.52;;;;;;;;;;5055883;28;20021;-69
2023/05/08 05:42:05;;;;;;;3.85;1.55;;;;;;;;;;5054314;28;20037;-68
2023/05/08 05:44:31;;;;;;;6.43;2.00;;;;;;;;;;5055959;28;20020;-69
2023/05/08 05:46:57;;;;;;;5.55;1.83;;;;;;;;;;5056158;28;20078;-69
2023/05/08 05:49:24;;;;;;;4.68;1.42;;;;;;;;;;5055605;28;20520;-69
2023/05/08 05:51:50;;;;;;;6.43;1.60;;;;;;;;;;5055615;28;20024;-69
2023/05/08 05:54:16;;;;;;;6.22;1.80;;;;;;;;;;5055846;28;20405;-69
2023/05/08 05:56:43;;;;;;;9.77;2.30;;;;;;;;;;5055738;28;20074;-69
2023/05/08 05:59:09;;;;;;;3.97;1.60;;;;;;;;;;5055599;28;20475;-69
2023/05/08 06:01:35;;;;;;;4.28;1.70;;;;;;;;;;5055241;28;20049;-69
2023/05/08 06:04:03;;;;;;;5.38;1.50;;;;;;;;;;5055921;28;20031;-69
2023/05/08 06:06:30;;;;;;;6.30;1.65;;;;;;;;;;5055610;28;20028;-69
2023/05/08 06:08:57;;;;;;;6.75;1.58;;;;;;;;;;5055325;28;20387;-69
2023/05/08 06:11:23;;;;;;;6.22;1.58;;;;;;;;;;5055437;28;20039;-69
2023/05/08 06:13:49;;;;;;;10.77;2.83;;;;;;;;;;5055096;28;20378;-69
2023/05/08 06:16:16;;;;;;;3.55;1.70;;;;;;;;;;5055130;28;20031;-69
2023/05/08 06:18:42;;;;;;;6.75;1.75;;;;;;;;;;5055208;28;20025;-69
2023/05/08 06:21:08;;;;;;;8.18;1.70;;;;;;;;;;5053885;28;20032;-69
2023/05/08 06:23:35;;;;;;;6.82;2.00;;;;;;;;;;5055271;28;20025;-69
2023/05/08 06:26:01;;;;;;;4.65;1.80;;;;;;;;;;5054988;28;20021;-69
2023/05/08 06:28:28;;;;;;;4.47;1.50;;;;;;;;;;5054945;28;20020;-69
2023/05/08 06:30:54;;;;;;;4.82;1.60;;;;;;;;;;5054683;28;20086;-69
2023/05/08 06:33:21;;;;;;;2.45;0.90;;;;;;;;;;5054995;28;20028;-69
2023/05/08 06:35:47;;;;;;;3.78;1.30;;;;;;;;;;5055021;28;20025;-69
2023/05/08 06:38:14;;;;;;;2.35;1.23;;;;;;;;;;5054569;28;20017;-69
2023/05/08 06:40:42;;;;;;;3.15;1.15;;;;;;;;;;5054651;28;20031;-69
2023/05/08 06:43:08;;;;;;;4.32;1.38;;;;;;;;;;5055022;28;20033;-69
2023/05/08 06:45:35;;;;;;;4.28;1.15;;;;;;;;;;5054862;28;20511;-68
2023/05/08 06:48:01;;;;;;;4.22;1.20;;;;;;;;;;5054895;28;20029;-69
2023/05/08 06:50:27;;;;;;;3.70;0.80;;;;;;;;;;5054469;28;20359;-68
2023/05/08 06:52:54;;;;;;;3.40;1.15;;;;;;;;;;5054401;28;20409;-69
2023/05/08 06:55:20;;;;;;;4.40;1.20;;;;;;;;;;5053299;28;20029;-69
2023/05/08 06:57:46;;;;;;;5.20;1.10;;;;;;;;;;5054485;28;20032;-69
2023/05/08 07:00:13;;;;;;;3.40;1.00;;;;;;;;;;5054062;28;20036;-69
2023/05/08 07:02:39;;;;;;;2.72;1.13;;;;;;;;;;5053345;28;20036;-69
2023/05/08 07:05:06;;;;;;;3.17;0.90;;;;;;;;;;5054943;28;20033;-69
2023/05/08 07:07:32;;;;;;;2.55;0.80;;;;;;;;;;5054196;28;20139;-69
2023/05/08 07:09:59;;;;;;;3.38;1.17;;;;;;;;;;5054083;28;20485;-69
2023/05/08 07:12:25;;;;;;;2.63;1.00;;;;;;;;;;5054166;28;20397;-69
2023/05/08 07:14:52;;;;;;;4.30;1.10;;;;;;;;;;5054111;28;20016;-69
2023/05/08 07:17:18;;;;;;;2.15;1.05;;;;;;;;;;5054074;28;20093;-69
2023/05/08 07:19:44;;;;;;;2.78;1.45;;;;;;;;;;5054291;28;20024;-69
2023/05/08 07:22:11;;;;;;;2.13;0.90;;;;;;;;;;5052839;28;20040;-69
2023/05/08 07:24:37;;;;;;;2.88;1.02;;;;;;;;;;5053267;28;20043;-69
2023/05/08 07:27:03;;;;;;;5.07;1.23;;;;;;;;;;5053970;28;20485;-69
2023/05/08 07:29:30;;;;;;;3.50;1.00;;;;;;;;;;5053862;28;20029;-69
2023/05/08 07:31:56;;;;;;;2.47;0.70;;;;;;;;;;5053379;28;20025;-69
2023/05/08 07:34:22;;;;;;;6.97;1.00;;;;;;;;;;5054174;28;20029;-69
2023/05/08 07:36:49;;;;;;;3.47;1.10;;;;;;;;;;5053731;28;20027;-70
2023/05/08 07:39:15;;;;;;;1.58;0.93;;;;;;;;;;5053642;28;20021;-69
2023/05/08 07:41:41;;;;;;;2.30;0.90;;;;;;;;;;5053559;28;20051;-69
2023/05/08 07:44:08;;;;;;;3.92;0.90;;;;;;;;;;5053705;28;20095;-69
2023/05/08 07:46:34;;;;;;;3.22;1.10;;;;;;;;;;5053611;28;20055;-69
2023/05/08 07:49:01;;;;;;;3.40;0.70;;;;;;;;;;5053541;28;20019;-69
2023/05/08 07:51:27;;;;;;;3.13;1.00;;;;;;;;;;5053183;28;20036;-69
2023/05/08 07:53:54;;;;;;;2.25;0.70;;;;;;;;;;5053430;28;20024;-69
2023/05/08 07:56:21;;;;;;;0.88;0.60;;;;;;;;;;5053332;28;20036;-68
2023/05/08 07:58:48;;;;;;;1.33;0.60;;;;;;;;;;5053147;28;20474;-69
2023/05/08 08:01:16;;;;;;;2.67;0.98;;;;;;;;;;5053052;28;20402;-68
2023/05/08 08:03:43;;;;;;;1.95;0.80;;;;;;;;;;5053214;28;20021;-69
2023/05/08 08:06:09;;;;;;;2.78;0.82;;;;;;;;;;5051632;28;20064;-69
2023/05/08 08:08:36;;;;;;;1.65;0.80;;;;;;;;;;5053269;28;20031;-69
2023/05/08 08:11:02;;;;;;;3.53;1.02;;;;;;;;;;5052978;28;20039;-69
2023/05/08 08:13:28;;;;;;;2.53;1.17;;;;;;;;;;5052904;28;20031;-69
2023/05/08 08:15:56;;;;;;;1.77;0.80;;;;;;;;;;5053322;28;20027;-69
2023/05/08 08:18:22;;;;;;;2.58;0.95;;;;;;;;;;5053011;28;20016;-69
2023/05/08 08:20:48;;;;;;;2.45;1.00;;;;;;;;;;5052767;28;20037;-69
2023/05/08 08:23:15;;;;;;;3.10;1.05;;;;;;;;;;5053187;28;20021;-69
2023/05/08 08:25:41;;;;;;;2.55;1.00;;;;;;;;;;5053004;28;20035;-69
2023/05/08 08:28:07;;;;;;;4.43;0.90;;;;;;;;;;5053133;28;20031;-69
2023/05/08 08:30:34;;;;;;;1.63;0.90;;;;;;;;;;5052648;28;20037;-69
2023/05/08 08:33:01;;;;;;;2.10;0.90;;;;;;;;;;5052899;28;20082;-69
2023/05/08 08:35:28;;;;;;;4.05;0.88;;;;;;;;;;5052558;28;20031;-69
2023/05/08 08:37:58;;;;;;;1.70;0.77;;;;;;;;;;5052534;28;20047;-69
2023/05/08 08:40:25;;;;;;;1.60;0.80;;;;;;;;;;5052809;28;20028;-69
2023/05/08 08:42:51;;;;;;;0.88;0.80;;;;;;;;;;5052587;28;20037;-69
2023/05/08 08:45:17;;;;;;;4.90;1.10;;;;;;;;;;5051702;28;20397;-69
2023/05/08 08:47:45;;;;;;;1.90;0.80;;;;;;;;;;5052684;28;20393;-69
2023/05/08 08:50:13;;;;;;;2.38;1.00;;;;;;;;;;5052294;28;20031;-69
2023/05/08 08:52:54;;;;;;;1.80;0.80;;;;;;;;;;5052283;28;20031;-69
2023/05/08 08:55:22;;;;;;;1.30;0.80;;;;;;;;;;5052519;28;20021;-69
2023/05/08 08:57:54;;;;;;;2.80;0.88;;;;;;;;;;5052595;28;20028;-69
2023/05/08 09:00:22;;;;;;;2.28;0.95;;;;;;;;;;5052264;28;20033;-69
2023/05/08 09:02:48;;;;;;;3.38;1.00;;;;;;;;;;5052187;28;20033;-69
2023/05/08 09:05:15;;;;;;;2.50;1.00;;;;;;;;;;5052638;28;20025;-69
2023/05/08 09:07:42;;;;;;;2.50;1.00;;;;;;;;;;5052403;28;20033;-69
2023/05/08 09:10:14;;;;;;;4.03;1.15;;;;;;;;;;5052404;28;20009;-69
2023/05/08 09:12:41;;;;;;;1.38;0.90;;;;;;;;;;5052493;28;20021;-69
2023/05/08 09:15:07;;;;;;;1.98;1.00;;;;;;;;;;5052757;28;20115;-69
2023/05/08 09:17:34;;;;;;;1.67;1.00;;;;;;;;;;5052398;28;20031;-69
2023/05/08 09:20:01;;;;;;;2.15;0.57;;;;;;;;;;5052014;28;20479;-69
2023/05/08 09:22:28;;;;;;;4.80;1.30;;;;;;;;;;5052164;28;20037;-69
2023/05/08 09:24:55;;;;;;;1.98;0.82;;;;;;;;;;5052740;28;20024;-69
2023/05/08 09:27:23;;;;;;;1.77;0.82;;;;;;;;;;5052338;28;20021;-69
2023/05/08 09:30:01;;;;;;;2.15;0.88;;;;;;;;;;5052043;28;20033;-69
2023/05/08 09:32:28;;;;;;;3.63;1.00;;;;;;;;;;5051999;28;20043;-68
2023/05/08 09:34:55;;;;;;;2.72;1.00;;;;;;;;;;5052004;28;20021;-69
2023/05/08 09:37:21;;;;;;;2.90;0.90;;;;;;;;;;5051930;28;20033;-69
2023/05/08 09:39:48;;;;;;;3.45;1.10;;;;;;;;;;5052153;28;20517;-69
2023/05/08 09:42:16;;;;;;;5.18;1.05;;;;;;;;;;5051610;28;20529;-69
2023/05/08 09:44:48;;;;;;;4.93;0.80;;;;;;;;;;5051828;28;20025;-69
2023/05/08 09:47:14;;;;;;;7.18;0.90;;;;;;;;;;5051736;28;20021;-69
2023/05/08 09:49:59;;;;;;;3.15;0.88;;;;;;;;;;5052118;28;20027;-69
2023/05/08 09:52:26;;;;;;;3.95;1.23;;;;;;;;;;5051974;28;20017;-69
2023/05/08 09:55:00;;;;;;;3.58;1.20;;;;;;;;;;5052211;28;20033;-68
2023/05/08 09:57:27;;;;;;;2.38;0.90;;;;;;;;;;5056022;28;20469;-68
2023/05/08 10:00:08;;;;;;;2.17;0.82;;;;;;;;;;5055583;28;20392;-68
2023/05/08 10:02:36;;;;;;;2.58;0.90;;;;;;;;;;5054007;28;20040;-69
2023/05/08 10:05:21;;;;;;;3.00;0.90;;;;;;;;;;5055549;28;20021;-69
2023/05/08 10:07:48;;;;;;;2.25;0.80;;;;;;;;;;5055535;28;20025;-69
2023/05/08 10:10:14;;;;;;;2.13;0.85;;;;;;;;;;5055423;28;20035;-69
2023/05/08 10:12:41;;;;;;;3.05;1.00;;;;;;;;;;5055407;28;20477;-68
2023/05/08 10:15:07;;;;;;;1.58;0.77;;;;;;;;;;5055456;28;20470;-69
2023/05/08 10:17:54;;;;;;;2.35;1.08;;;;;;;;;;5055517;28;20017;-69
2023/05/08 10:20:21;;;;;;;4.15;1.30;;;;;;;;;;5051375;28;20033;-69
2023/05/08 10:22:48;;;;;;;2.05;1.00;;;;;;;;;;5055012;28;20029;-69
2023/05/08 10:25:20;;;;;;;4.45;0.98;;;;;;;;;;5054273;28;20031;-69
2023/05/08 10:28:02;;;;;;;2.92;1.15;;;;;;;;;;5055009;28;20032;-69
2023/05/08 10:30:30;;;;;;;4.72;1.50;;;;;;;;;;5054498;28;20419;-69
2023/05/08 10:32:58;;;;;;;3.25;1.50;;;;;;;;;;5054945;28;20025;-69
2023/05/08 10:35:24;;;;;;;2.58;1.20;;;;;;;;;;5053633;28;20036;-69
2023/05/08 10:37:51;;;;;;;2.28;1.40;;;;;;;;;;5054761;28;20110;-69
2023/05/08 10:40:19;;;;;;;2.55;1.30;;;;;;;;;;5054760;28;20017;-69
2023/05/08 10:42:46;;;;;;;4.88;1.20;;;;;;;;;;5055072;28;20544;-69
2023/05/08 10:45:13;;;;;;;5.93;1.63;;;;;;;;;;5054382;28;20186;-69
2023/05/08 10:47:58;;;;;;;4.10;1.70;;;;;;;;;;5054791;28;20035;-69
2023/05/08 10:50:30;;;;;;;4.00;1.10;;;;;;;;;;5054550;28;20025;-69
2023/05/08 10:53:02;;;;;;;4.57;1.60;;;;;;;;;;5054520;28;20082;-69
2023/05/08 10:55:33;;;;;;;2.92;1.35;;;;;;;;;;5054455;28;20025;-69
2023/05/08 10:58:06;;;;;;;3.25;1.08;;;;;;;;;;5054503;28;20029;-68
2023/05/08 11:00:33;;;;;;;4.70;1.20;;;;;;;;;;5054087;28;20017;-68
2023/05/08 11:03:06;;;;;;;2.60;1.00;;;;;;;;;;5054201;28;20094;-69
2023/05/08 11:05:44;;;;;;;5.30;1.40;;;;;;;;;;5054147;28;20025;-69
2023/05/08 11:08:14;;;;;;;3.85;1.80;;;;;;;;;;5053534;28;20029;-69
2023/05/08 11:10:41;;;;;;;4.07;1.08;;;;;;;;;;5054475;28;20047;-69
2023/05/08 11:13:08;;;;;;;3.42;1.05;;;;;;;;;;5054305;28;20524;-69
2023/05/08 11:15:41;;;;;;;3.55;1.20;;;;;;;;;;5053978;28;20037;-69
2023/05/08 11:18:10;;;;;;;3.33;1.00;;;;;;;;;;5054170;28;20178;-69
2023/05/08 11:20:41;;;;;;;4.00;1.10;;;;;;;;;;5054074;28;20027;-69
2023/05/08 11:23:22;;;;;;;3.67;1.33;;;;;;;;;;5054361;28;20039;-69
2023/05/08 11:25:59;;;;;;;1.42;0.98;;;;;;;;;;5054361;28;20066;-69
2023/05/08 11:28:25;;;;;;;2.13;0.95;;;;;;;;;;5053969;28;20078;-69
2023/05/08 11:30:57;;;;;;;2.35;1.00;;;;;;;;;;5053560;28;20041;-70
2023/05/08 11:33:29;;;;;;;2.60;1.25;;;;;;;;;;5053868;28;20025;-69
2023/05/08 11:35:56;;;;;;;2.50;1.10;;;;;;;;;;5054007;28;20474;-70
2023/05/08 11:38:37;;;;;;;2.33;1.33;;;;;;;;;;5053735;28;20020;-70
2023/05/08 11:41:04;;;;;;;2.83;1.10;;;;;;;;;;5053709;28;20033;-70
2023/05/08 11:43:36;;;;;;;10.50;1.23;;;;;;;;;;5053552;28;20031;-70
2023/05/08 11:46:04;;;;;;;1.77;0.70;;;;;;;;;;5053682;28;20017;-69
2023/05/08 11:48:31;;;;;;;2.15;0.77;;;;;;;;;;5053450;28;20482;-70
2023/05/08 11:51:01;;;;;;;2.65;1.13;;;;;;;;;;5053553;28;20393;-70
2023/05/08 11:53:30;;;;;;;2.42;1.13;;;;;;;;;;5053230;28;20392;-70
2023/05/08 11:55:56;;;;;;;1.88;1.30;;;;;;;;;;5053453;28;20074;-69
2023/05/08 11:58:23;;;;;;;2.28;0.98;;;;;;;;;;5085307;28;20043;-69
2023/05/08 12:00:49;;;;;;;0.77;0.60;;;;;;;;;;5053371;28;20372;-70
2023/05/08 12:03:19;;;;;;;1.88;0.85;;;;;;;;;;5053046;28;20448;-69
2023/05/08 12:05:46;;;;;;;2.10;1.00;;;;;;;;;;5053241;28;20424;-69
2023/05/08 12:08:13;;;;;;;2.17;0.80;;;;;;;;;;5053175;28;20771;-69
2023/05/08 12:10:52;;;;;;;2.00;0.98;;;;;;;;;;5053138;28;20029;-69
2023/05/08 12:13:21;;;;;;;2.25;1.17;;;;;;;;;;5051898;28;20033;-69
2023/05/08 12:15:48;;;;;;;2.45;0.98;;;;;;;;;;5053243;28;20028;-69
2023/05/08 12:18:15;;;;;;;3.17;1.23;;;;;;;;;;5052939;28;20031;-69
2023/05/08 12:20:42;;;;;;;4.20;0.85;;;;;;;;;;5052970;28;20451;-70
2023/05/08 12:23:09;;;;;;;5.53;1.00;;;;;;;;;;5052783;28;20045;-69
2023/05/08 12:25:39;;;;;;;1.73;0.82;;;;;;;;;;5052984;28;20028;-69
2023/05/08 12:28:11;;;;;;;1.20;0.67;;;;;;;;;;5052599;28;20023;-69
2023/05/08 12:30:37;;;;;;;4.03;1.02;;;;;;;;;;5052570;28;20051;-69
2023/05/08 12:33:05;;;;;;;1.30;0.85;;;;;;;;;;5052687;28;20028;-69
2023/05/08 12:35:31;;;;;;;2.85;0.77;;;;;;;;;;5053251;28;20023;-69
2023/05/08 12:38:02;;;;;;;1.05;0.70;;;;;;;;;;5052846;28;20031;-70
2023/05/08 12:40:39;;;;;;;2.10;0.90;;;;;;;;;;5052559;28;20025;-70
2023/05/08 12:43:05;;;;;;;2.38;0.90;;;;;;;;;;5052680;28;20090;-70
2023/05/08 12:45:33;;;;;;;1.55;0.73;;;;;;;;;;5052842;28;20036;-69
2023/05/08 12:48:00;;;;;;;3.17;0.80;;;;;;;;;;5052698;28;20037;-70
2023/05/08 12:50:29;;;;;;;2.35;0.90;;;;;;;;;;5052552;28;20050;-69
2023/05/08 12:53:01;;;;;;;3.53;1.00;;;;;;;;;;5052800;28;20039;-69
2023/05/08 12:55:29;;;;;;;1.90;1.00;;;;;;;;;;5052290;28;20409;-70
2023/05/08 12:58:05;;;;;;;2.40;1.00;;;;;;;;;;5052330;28;20029;-69
2023/05/08 13:00:39;;;;;;;2.17;0.90;;;;;;;;;;5052318;28;20405;-70
2023/05/08 13:03:06;;;;;;;1.58;0.88;;;;;;;;;;5052194;28;20039;-70
2023/05/08 13:05:34;;;;;;;2.28;0.82;;;;;;;;;;5052724;28;20036;-70
2023/05/08 13:08:01;;;;;;;5.45;1.00;;;;;;;;;;5052280;28;20045;-70
2023/05/08 13:10:43;;;;;;;2.05;0.85;;;;;;;;;;5052191;28;20017;-69
2023/05/08 13:13:09;;;;;;;3.40;0.90;;;;;;;;;;5052512;28;20094;-70
2023/05/08 13:15:36;;;;;;;1.75;0.93;;;;;;;;;;5052558;28;20501;-70
2023/05/08 13:18:02;;;;;;;2.88;0.80;;;;;;;;;;5052138;28;20025;-70
2023/05/08 13:20:28;;;;;;;3.22;1.00;;;;;;;;;;5052151;28;20036;-70
2023/05/08 13:22:54;;;;;;;3.58;0.90;;;;;;;;;;5052269;28;20045;-69
2023/05/08 13:25:21;;;;;;;2.15;1.00;;;;;;;;;;5051833;28;20389;-70
2023/05/08 13:27:47;;;;;;;1.05;0.88;;;;;;;;;;5052433;28;20027;-69
2023/05/08 13:30:14;;;;;;;2.75;1.05;;;;;;;;;;5052487;28;20498;-70
2023/05/08 13:32:40;;;;;;;2.50;0.90;;;;;;;;;;5056435;28;20033;-70
2023/05/08 13:35:07;;;;;;;2.78;1.00;;;;;;;;;;5056210;28;20081;-70
2023/05/08 13:37:33;;;;;;;1.77;0.90;;;;;;;;;;5056018;28;20033;-69
2023/05/08 13:39:59;;;;;;;2.85;0.93;;;;;;;;;;5055529;28;20025;-70
2023/05/08 13:42:26;;;;;;;0.90;0.60;;;;;;;;;;5056222;28;20393;-70
2023/05/08 13:44:52;;;;;;;1.48;0.80;;;;;;;;;;5056058;28;20105;-70
2023/05/08 13:47:18;;;;;;;1.88;0.88;;;;;;;;;;5055758;28;20025;-70
2023/05/08 13:49:46;;;;;;;2.60;0.90;;;;;;;;;;5055748;28;20048;-70
2023/05/08 13:52:12;;;;;;;2.60;0.80;;;;;;;;;;5055631;28;20469;-68
2023/05/08 13:54:38;;;;;;;2.08;1.08;;;;;;;;;;5055457;28;20048;-69
2023/05/08 13:57:05;;;;;;;1.60;0.70;;;;;;;;;;5054545;28;20025;-69
2023/05/08 13:59:31;;;;;;;3.33;1.02;;;;;;;;;;5055576;28;20025;-69
2023/05/08 14:01:57;;;;;;;1.15;0.90;;;;;;;;;;5055636;28;20036;-70
2023/05/08 14:04:24;;;;;;;2.15;0.80;;;;;;;;;;5055556;28;20017;-69
2023/05/08 14:06:50;;;;;;;1.90;1.00;;;;;;;;;;5055778;28;20072;-70
2023/05/08 14:09:16;;;;;;;1.20;0.80;;;;;;;;;;5055286;28;20393;-69
2023/05/08 14:11:43;;;;;;;6.05;0.98;;;;;;;;;;5055355;28;20432;-69
2023/05/08 14:14:09;;;;;;;1.30;0.90;;;;;;;;;;5055690;28;20035;-70
2023/05/08 14:16:35;;;;;;;1.08;0.70;;;;;;;;;;5055292;28;20046;-70
2023/05/08 14:19:02;;;;;;;1.80;0.98;;;;;;;;;;5055455;28;20018;-69
2023/05/08 14:21:29;;;;;;;1.15;0.82;;;;;;;;;;5055039;28;20494;-70
2023/05/08 14:23:56;;;;;;;0.90;0.82;;;;;;;;;;5055000;28;20037;-70
2023/05/08 14:26:22;;;;;;;2.67;0.70;;;;;;;;;;5055212;28;20025;-69
2023/05/08 14:28:48;;;;;;;1.65;1.00;;;;;;;;;;5055140;28;20035;-69
2023/05/08 14:31:15;;;;;;;7.50;0.70;;;;;;;;;;5054865;28;20528;-70
2023/05/08 14:33:41;;;;;;;0.93;0.70;;;;;;;;;;5053932;28;20049;-70
2023/05/08 14:36:08;;;;;;;1.60;0.98;;;;;;;;;;5054961;28;20032;-69
2023/05/08 14:38:34;;;;;;;1.98;0.90;;;;;;;;;;5054585;28;20067;-69
2023/05/08 14:41:00;;;;;;;2.92;1.00;;;;;;;;;;5055141;28;20029;-69
2023/05/08 14:43:27;;;;;;;1.52;1.00;;;;;;;;;;5046504;28;20033;-70
2023/05/08 14:45:53;;;;;;;4.03;0.63;;;;;;;;;;5037579;28;20389;-72
2023/05/08 14:48:19;;;;;;;1.77;0.60;;;;;;;;;;5053290;28;20029;-72
2023/05/08 14:50:46;;;;;;;2.38;0.95;;;;;;;;;;5046189;28;20024;-72